sensor_id;sensor_type;location;lat;lon;timestamp;P1;durP1;ratioP1;P2;durP2;ratioP2
73315;SDS011;61545;53.726;-0.444;2022-07-03T00:01:36;4.4;;;1;;
73315;SDS011;61545;53.726;-0.444;2022-07-03T00:06:36;2.6;;;0.9;;
73315;SDS011;61545;53.726;-0.444;2022-07-03T00:11:36;3.9;;;0.8;;
73315;SDS011;61545;53.726;-0.444;2022-07-03T00:16:36;3.9;;;0.8;;
73315;SDS011;61545;53.726;-0.444;2022-07-03T00:21:39;2.8;;;1;;
73315;SDS011;61545;53.726;-0.444;2022-07-03T00:26:38;5.5;;;1;;
73315;SDS011;61545;53.726;-0.444;2022-07-03T00:31:36;6.8;;;1.1;;
73315;SDS011;61545;53.726;-0.444;2022-07-03T00:36:37;5.5;;;1.2;;
73315;SDS011;61545;53.726;-0.444;2022-07-03T00:41:36;4.8;;;1;;
73315;SDS011;61545;53.726;-0.444;2022-07-03T00:46:37;4.8;;;1;;
73315;SDS011;61545;53.726;-0.444;2022-07-03T00:51:38;3.4;;;0.8;;
73315;SDS011;61545;53.726;-0.444;2022-07-03T00:56:38;5.9;;;1;;
73315;SDS011;61545;53.726;-0.444;2022-07-03T01:01:37;2.2;;;0.9;;
73315;SDS011;61545;53.726;-0.444;2022-07-03T01:06:40;2.6;;;1.2;;
73315;SDS011;61545;53.726;-0.444;2022-07-03T01:11:37;4.8;;;1;;
73315;SDS011;61545;53.726;-0.444;2022-07-03T01:16:38;4.8;;;1;;
73315;SDS011;61545;53.726;-0.444;2022-07-03T01:21:41;2.2;;;1;;
73315;SDS011;61545;53.726;-0.444;2022-07-03T01:26:38;4.2;;;1;;
73315;SDS011;61545;53.726;-0.444;2022-07-03T01:31:37;3.2;;;1.2;;
73315;SDS011;61545;53.726;-0.444;2022-07-03T01:36:38;7.1;;;1.4;;
73315;SDS011;61545;53.726;-0.444;2022-07-03T01:41:36;3.1;;;1.3;;
73315;SDS011;61545;53.726;-0.444;2022-07-03T01:46:36;3.1;;;1.3;;
73315;SDS011;61545;53.726;-0.444;2022-07-03T01:51:36;8.8;;;1.3;;
73315;SDS011;61545;53.726;-0.444;2022-07-03T01:56:36;4.2;;;1.2;;
73315;SDS011;61545;53.726;-0.444;2022-07-03T02:01:41;4.7;;;1.6;;
73315;SDS011;61545;53.726;-0.444;2022-07-03T02:06:39;4.2;;;1.2;;
73315;SDS011;61545;53.726;-0.444;2022-07-03T02:11:37;8.8;;;1.7;;
73315;SDS011;61545;53.726;-0.444;2022-07-03T02:16:43;8.8;;;1.7;;
73315;SDS011;61545;53.726;-0.444;2022-07-03T02:21:36;6.1;;;1.6;;
73315;SDS011;61545;53.726;-0.444;2022-07-03T02:26:38;6.1;;;1.4;;
73315;SDS011;61545;53.726;-0.444;2022-07-03T02:31:38;3.7;;;1.4;;
73315;SDS011;61545;53.726;-0.444;2022-07-03T02:36:36;4.2;;;1.5;;
73315;SDS011;61545;53.726;-0.444;2022-07-03T02:41:39;4.0;;;1.4;;
73315;SDS011;61545;53.726;-0.444;2022-07-03T02:46:38;4.0;;;1.4;;
73315;SDS011;61545;53.726;-0.444;2022-07-03T02:51:37;5.3;;;1.4;;
73315;SDS011;61545;53.726;-0.444;2022-07-03T02:56:50;4.3;;;1.5;;
73315;SDS011;61545;53.726;-0.444;2022-07-03T03:01:41;5.3;;;1.6;;
73315;SDS011;61545;53.726;-0.444;2022-07-03T03:06:37;7.8;;;1.7;;
73315;SDS011;61545;53.726;-0.444;2022-07-03T03:11:41;5.6;;;1.9;;
73315;SDS011;61545;53.726;-0.444;2022-07-03T03:16:36;5.6;;;1.9;;
73315;SDS011;61545;53.726;-0.444;2022-07-03T03:21:52;7.2;;;1.8;;
73315;SDS011;61545;53.726;-0.444;2022-07-03T03:26:36;3.4;;;1.8;;
73315;SDS011;61545;53.726;-0.444;2022-07-03T03:31:36;7.4;;;1.7;;
73315;SDS011;61545;53.726;-0.444;2022-07-03T03:36:36;5.9;;;1.5;;
73315;SDS011;61545;53.726;-0.444;2022-07-03T03:41:36;6.9;;;1.9;;
73315;SDS011;61545;53.726;-0.444;2022-07-03T03:46:36;6.9;;;1.9;;
73315;SDS011;61545;53.726;-0.444;2022-07-03T03:51:36;3.9;;;2.1;;
73315;SDS011;61545;53.726;-0.444;2022-07-03T03:56:36;6.5;;;1.7;;
73315;SDS011;61545;53.726;-0.444;2022-07-03T04:01:36;4.7;;;1.6;;
73315;SDS011;61545;53.726;-0.444;2022-07-03T04:06:36;7.8;;;2;;
73315;SDS011;61545;53.726;-0.444;2022-07-03T04:11:36;4.6;;;1.6;;
73315;SDS011;61545;53.726;-0.444;2022-07-03T04:16:36;4.6;;;1.6;;
73315;SDS011;61545;53.726;-0.444;2022-07-03T04:21:36;14.6;;;2.7;;
73315;SDS011;61545;53.726;-0.444;2022-07-03T04:26:36;7.1;;;2.1;;
73315;SDS011;61545;53.726;-0.444;2022-07-03T04:31:36;10.2;;;2.2;;
73315;SDS011;61545;53.726;-0.444;2022-07-03T04:36:36;10.8;;;2.2;;
73315;SDS011;61545;53.726;-0.444;2022-07-03T04:41:36;9.3;;;2.7;;
73315;SDS011;61545;53.726;-0.444;2022-07-03T04:46:36;9.3;;;2.7;;
73315;SDS011;61545;53.726;-0.444;2022-07-03T04:51:36;12.8;;;3.1;;
73315;SDS011;61545;53.726;-0.444;2022-07-03T04:56:36;8.7;;;2.4;;
73315;SDS011;61545;53.726;-0.444;2022-07-03T05:01:36;9.3;;;2.6;;
73315;SDS011;61545;53.726;-0.444;2022-07-03T05:06:36;12.0;;;3;;
73315;SDS011;61545;53.726;-0.444;2022-07-03T05:11:36;17.4;;;3.7;;
73315;SDS011;61545;53.726;-0.444;2022-07-03T05:16:36;17.4;;;3.7;;
73315;SDS011;61545;53.726;-0.444;2022-07-03T05:21:36;11.1;;;2.7;;
73315;SDS011;61545;53.726;-0.444;2022-07-03T05:26:36;12.1;;;3.4;;
73315;SDS011;61545;53.726;-0.444;2022-07-03T05:31:36;13.9;;;3.8;;
73315;SDS011;61545;53.726;-0.444;2022-07-03T05:36:36;14.1;;;3.5;;
73315;SDS011;61545;53.726;-0.444;2022-07-03T05:41:36;8.8;;;3.1;;
73315;SDS011;61545;53.726;-0.444;2022-07-03T05:46:36;8.8;;;3.1;;
73315;SDS011;61545;53.726;-0.444;2022-07-03T05:51:36;10.9;;;3;;
73315;SDS011;61545;53.726;-0.444;2022-07-03T05:56:36;5.8;;;2.4;;
73315;SDS011;61545;53.726;-0.444;2022-07-03T06:01:36;11.2;;;2.7;;
73315;SDS011;61545;53.726;-0.444;2022-07-03T06:06:36;6.0;;;2;;
73315;SDS011;61545;53.726;-0.444;2022-07-03T06:11:36;10.8;;;2.8;;
73315;SDS011;61545;53.726;-0.444;2022-07-03T06:16:36;10.8;;;2.8;;
73315;SDS011;61545;53.726;-0.444;2022-07-03T06:21:36;9.8;;;2.4;;
73315;SDS011;61545;53.726;-0.444;2022-07-03T06:26:36;8.3;;;2.1;;
73315;SDS011;61545;53.726;-0.444;2022-07-03T06:31:36;11.5;;;2.8;;
73315;SDS011;61545;53.726;-0.444;2022-07-03T06:36:36;7.6;;;1.9;;
73315;SDS011;61545;53.726;-0.444;2022-07-03T06:41:36;8.8;;;2.4;;
73315;SDS011;61545;53.726;-0.444;2022-07-03T06:46:36;8.8;;;2.4;;
73315;SDS011;61545;53.726;-0.444;2022-07-03T06:51:36;6.0;;;1.6;;
73315;SDS011;61545;53.726;-0.444;2022-07-03T06:56:36;11.0;;;2.3;;
73315;SDS011;61545;53.726;-0.444;2022-07-03T07:01:36;7.9;;;2.4;;
73315;SDS011;61545;53.726;-0.444;2022-07-03T07:06:36;10.3;;;2.5;;
73315;SDS011;61545;53.726;-0.444;2022-07-03T07:11:36;9.2;;;1.8;;
73315;SDS011;61545;53.726;-0.444;2022-07-03T07:16:36;9.2;;;1.8;;
73315;SDS011;61545;53.726;-0.444;2022-07-03T07:21:36;8.2;;;2.1;;
73315;SDS011;61545;53.726;-0.444;2022-07-03T07:26:36;4.8;;;1.5;;
73315;SDS011;61545;53.726;-0.444;2022-07-03T07:31:36;7.6;;;2;;
73315;SDS011;61545;53.726;-0.444;2022-07-03T07:36:36;7.6;;;2.1;;
73315;SDS011;61545;53.726;-0.444;2022-07-03T07:41:36;6.1;;;2;;
73315;SDS011;61545;53.726;-0.444;2022-07-03T07:46:36;6.1;;;2;;
73315;SDS011;61545;53.726;-0.444;2022-07-03T07:51:36;7.4;;;1.9;;
73315;SDS011;61545;53.726;-0.444;2022-07-03T07:56:36;8.5;;;1.9;;
73315;SDS011;61545;53.726;-0.444;2022-07-03T08:01:36;8.5;;;2.7;;
73315;SDS011;61545;53.726;-0.444;2022-07-03T08:06:36;7.6;;;2.3;;
73315;SDS011;61545;53.726;-0.444;2022-07-03T08:11:36;3.9;;;1.5;;
73315;SDS011;61545;53.726;-0.444;2022-07-03T08:16:37;3.9;;;1.5;;
73315;SDS011;61545;53.726;-0.444;2022-07-03T08:21:36;6.9;;;2.1;;
73315;SDS011;61545;53.726;-0.444;2022-07-03T08:26:36;6.8;;;2;;
73315;SDS011;61545;53.726;-0.444;2022-07-03T08:31:36;5.5;;;1.7;;
73315;SDS011;61545;53.726;-0.444;2022-07-03T08:36:36;5.3;;;1.7;;
73315;SDS011;61545;53.726;-0.444;2022-07-03T08:41:37;4.7;;;1.5;;
73315;SDS011;61545;53.726;-0.444;2022-07-03T08:46:36;4.7;;;1.5;;
73315;SDS011;61545;53.726;-0.444;2022-07-03T08:51:36;4.6;;;1.4;;
73315;SDS011;61545;53.726;-0.444;2022-07-03T08:56:36;4.7;;;1.3;;
73315;SDS011;61545;53.726;-0.444;2022-07-03T09:01:36;4.0;;;1.3;;
73315;SDS011;61545;53.726;-0.444;2022-07-03T09:06:36;2.1;;;1;;
73315;SDS011;61545;53.726;-0.444;2022-07-03T09:11:37;9.1;;;2.2;;
73315;SDS011;61545;53.726;-0.444;2022-07-03T09:16:37;9.1;;;2.2;;
73315;SDS011;61545;53.726;-0.444;2022-07-03T09:21:37;2.7;;;1;;
73315;SDS011;61545;53.726;-0.444;2022-07-03T09:26:36;6.0;;;1.9;;
73315;SDS011;61545;53.726;-0.444;2022-07-03T09:31:36;3.4;;;1.3;;
73315;SDS011;61545;53.726;-0.444;2022-07-03T09:36:38;6.3;;;1.3;;
73315;SDS011;61545;53.726;-0.444;2022-07-03T09:41:50;5.7;;;1.2;;
73315;SDS011;61545;53.726;-0.444;2022-07-03T09:46:36;5.7;;;1.2;;
73315;SDS011;61545;53.726;-0.444;2022-07-03T09:51:36;3.0;;;1.3;;
73315;SDS011;61545;53.726;-0.444;2022-07-03T09:56:37;3.7;;;1.3;;
73315;SDS011;61545;53.726;-0.444;2022-07-03T10:01:37;3.9;;;1;;
73315;SDS011;61545;53.726;-0.444;2022-07-03T10:06:53;2.3;;;1.1;;
73315;SDS011;61545;53.726;-0.444;2022-07-03T10:11:36;3.8;;;1.2;;
73315;SDS011;61545;53.726;-0.444;2022-07-03T10:16:36;3.8;;;1.2;;
73315;SDS011;61545;53.726;-0.444;2022-07-03T10:21:36;2.9;;;1.4;;
73315;SDS011;61545;53.726;-0.444;2022-07-03T10:26:36;2.3;;;0.7;;
73315;SDS011;61545;53.726;-0.444;2022-07-03T10:31:37;5.0;;;1.2;;
73315;SDS011;61545;53.726;-0.444;2022-07-03T10:36:36;7.0;;;1.2;;
73315;SDS011;61545;53.726;-0.444;2022-07-03T10:41:39;9.3;;;1.5;;
73315;SDS011;61545;53.726;-0.444;2022-07-03T10:46:36;9.3;;;1.5;;
73315;SDS011;61545;53.726;-0.444;2022-07-03T10:51:53;1.9;;;0.9;;
73315;SDS011;61545;53.726;-0.444;2022-07-03T10:57:04;2.0;;;0.9;;
73315;SDS011;61545;53.726;-0.444;2022-07-03T11:01:36;6.9;;;1.3;;
73315;SDS011;61545;53.726;-0.444;2022-07-03T11:07:08;3.3;;;1;;
73315;SDS011;61545;53.726;-0.444;2022-07-03T11:11:40;4.0;;;1.2;;
73315;SDS011;61545;53.726;-0.444;2022-07-03T11:16:36;4.0;;;1.2;;
73315;SDS011;61545;53.726;-0.444;2022-07-03T11:21:36;3.4;;;1.2;;
73315;SDS011;61545;53.726;-0.444;2022-07-03T11:26:36;2.1;;;0.8;;
73315;SDS011;61545;53.726;-0.444;2022-07-03T11:31:36;24.0;;;1.9;;
73315;SDS011;61545;53.726;-0.444;2022-07-03T11:36:36;3.1;;;1;;
73315;SDS011;61545;53.726;-0.444;2022-07-03T11:41:45;4.4;;;1.2;;
73315;SDS011;61545;53.726;-0.444;2022-07-03T11:46:37;4.4;;;1.2;;
73315;SDS011;61545;53.726;-0.444;2022-07-03T11:51:38;2.5;;;0.9;;
73315;SDS011;61545;53.726;-0.444;2022-07-03T11:56:36;5.4;;;1;;
73315;SDS011;61545;53.726;-0.444;2022-07-03T12:01:37;2.7;;;0.9;;
73315;SDS011;61545;53.726;-0.444;2022-07-03T12:06:37;2.1;;;0.9;;
73315;SDS011;61545;53.726;-0.444;2022-07-03T12:11:36;4.7;;;0.9;;
73315;SDS011;61545;53.726;-0.444;2022-07-03T12:16:36;4.7;;;0.9;;
73315;SDS011;61545;53.726;-0.444;2022-07-03T12:21:37;2.8;;;0.9;;
73315;SDS011;61545;53.726;-0.444;2022-07-03T12:26:36;2.0;;;0.7;;
73315;SDS011;61545;53.726;-0.444;2022-07-03T12:31:38;6.8;;;0.8;;
73315;SDS011;61545;53.726;-0.444;2022-07-03T12:36:37;1.5;;;0.6;;
73315;SDS011;61545;53.726;-0.444;2022-07-03T12:41:36;1.3;;;0.6;;
73315;SDS011;61545;53.726;-0.444;2022-07-03T12:46:36;1.3;;;0.6;;
73315;SDS011;61545;53.726;-0.444;2022-07-03T12:51:38;1.0;;;0.6;;
73315;SDS011;61545;53.726;-0.444;2022-07-03T12:56:36;1.9;;;0.5;;
73315;SDS011;61545;53.726;-0.444;2022-07-03T13:01:36;2.0;;;0.5;;
73315;SDS011;61545;53.726;-0.444;2022-07-03T13:06:36;2.8;;;0.8;;
73315;SDS011;61545;53.726;-0.444;2022-07-03T13:11:37;3.5;;;0.8;;
73315;SDS011;61545;53.726;-0.444;2022-07-03T13:16:38;3.5;;;0.8;;
73315;SDS011;61545;53.726;-0.444;2022-07-03T13:21:36;3.8;;;0.8;;
73315;SDS011;61545;53.726;-0.444;2022-07-03T13:26:37;1.1;;;0.5;;
73315;SDS011;61545;53.726;-0.444;2022-07-03T13:31:36;2.2;;;0.8;;
73315;SDS011;61545;53.726;-0.444;2022-07-03T13:36:36;1.8;;;0.6;;
73315;SDS011;61545;53.726;-0.444;2022-07-03T13:41:36;2.5;;;0.5;;
73315;SDS011;61545;53.726;-0.444;2022-07-03T13:46:36;2.5;;;0.5;;
73315;SDS011;61545;53.726;-0.444;2022-07-03T13:51:36;0.9;;;0.4;;
73315;SDS011;61545;53.726;-0.444;2022-07-03T13:56:36;1.6;;;0.3;;
73315;SDS011;61545;53.726;-0.444;2022-07-03T14:01:36;1.0;;;0.4;;
73315;SDS011;61545;53.726;-0.444;2022-07-03T14:06:36;1.5;;;0.5;;
73315;SDS011;61545;53.726;-0.444;2022-07-03T14:11:36;1.0;;;0.5;;
73315;SDS011;61545;53.726;-0.444;2022-07-03T14:16:36;1.0;;;0.5;;
73315;SDS011;61545;53.726;-0.444;2022-07-03T14:21:36;4.4;;;0.6;;
73315;SDS011;61545;53.726;-0.444;2022-07-03T14:26:36;2.8;;;0.6;;
73315;SDS011;61545;53.726;-0.444;2022-07-03T14:31:36;1.7;;;0.5;;
73315;SDS011;61545;53.726;-0.444;2022-07-03T14:36:36;5.1;;;0.6;;
73315;SDS011;61545;53.726;-0.444;2022-07-03T14:41:36;1.7;;;0.7;;
73315;SDS011;61545;53.726;-0.444;2022-07-03T14:46:36;1.7;;;0.7;;
73315;SDS011;61545;53.726;-0.444;2022-07-03T14:51:36;2.5;;;0.7;;
73315;SDS011;61545;53.726;-0.444;2022-07-03T14:56:39;1.4;;;0.5;;
73315;SDS011;61545;53.726;-0.444;2022-07-03T15:01:36;2.9;;;0.6;;
73315;SDS011;61545;53.726;-0.444;2022-07-03T15:06:36;1.5;;;0.5;;
73315;SDS011;61545;53.726;-0.444;2022-07-03T15:11:39;2.1;;;0.6;;
73315;SDS011;61545;53.726;-0.444;2022-07-03T15:16:36;2.1;;;0.6;;
73315;SDS011;61545;53.726;-0.444;2022-07-03T15:21:37;0.7;;;0.3;;
73315;SDS011;61545;53.726;-0.444;2022-07-03T15:26:36;1.8;;;0.5;;
73315;SDS011;61545;53.726;-0.444;2022-07-03T15:31:36;2.7;;;0.5;;
73315;SDS011;61545;53.726;-0.444;2022-07-03T15:36:41;1.0;;;0.4;;
73315;SDS011;61545;53.726;-0.444;2022-07-03T15:41:44;0.3;;;0.2;;
73315;SDS011;61545;53.726;-0.444;2022-07-03T15:46:40;0.3;;;0.2;;
73315;SDS011;61545;53.726;-0.444;2022-07-03T15:51:40;0.5;;;0.3;;
73315;SDS011;61545;53.726;-0.444;2022-07-03T15:56:37;2.0;;;0.3;;
73315;SDS011;61545;53.726;-0.444;2022-07-03T16:01:39;0.7;;;0.2;;
73315;SDS011;61545;53.726;-0.444;2022-07-03T16:06:37;0.9;;;0.4;;
73315;SDS011;61545;53.726;-0.444;2022-07-03T16:11:37;1.2;;;0.5;;
73315;SDS011;61545;53.726;-0.444;2022-07-03T16:16:36;1.2;;;0.5;;
73315;SDS011;61545;53.726;-0.444;2022-07-03T16:21:37;7.1;;;0.7;;
73315;SDS011;61545;53.726;-0.444;2022-07-03T16:26:36;2.3;;;0.9;;
73315;SDS011;61545;53.726;-0.444;2022-07-03T16:31:38;1.6;;;0.4;;
73315;SDS011;61545;53.726;-0.444;2022-07-03T16:36:36;1.5;;;0.4;;
73315;SDS011;61545;53.726;-0.444;2022-07-03T16:41:36;1.5;;;0.4;;
73315;SDS011;61545;53.726;-0.444;2022-07-03T16:46:40;3.2;;;0.8;;
73315;SDS011;61545;53.726;-0.444;2022-07-03T16:51:36;4.9;;;1.2;;
73315;SDS011;61545;53.726;-0.444;2022-07-03T16:56:36;2.5;;;0.8;;
73315;SDS011;61545;53.726;-0.444;2022-07-03T17:01:36;1.8;;;0.7;;
73315;SDS011;61545;53.726;-0.444;2022-07-03T17:06:37;3.0;;;1.1;;
73315;SDS011;61545;53.726;-0.444;2022-07-03T17:11:36;3.0;;;1.1;;
73315;SDS011;61545;53.726;-0.444;2022-07-03T17:16:37;2.0;;;0.9;;
73315;SDS011;61545;53.726;-0.444;2022-07-03T17:21:38;1.7;;;0.8;;
73315;SDS011;61545;53.726;-0.444;2022-07-03T17:26:40;10.4;;;1.2;;
73315;SDS011;61545;53.726;-0.444;2022-07-03T17:31:41;2.6;;;0.6;;
73315;SDS011;61545;53.726;-0.444;2022-07-03T17:36:37;2.0;;;0.7;;
73315;SDS011;61545;53.726;-0.444;2022-07-03T17:41:37;2.0;;;0.7;;
73315;SDS011;61545;53.726;-0.444;2022-07-03T17:46:36;2.8;;;0.9;;
73315;SDS011;61545;53.726;-0.444;2022-07-03T17:51:36;3.5;;;0.7;;
73315;SDS011;61545;53.726;-0.444;2022-07-03T17:56:36;3.4;;;0.8;;
73315;SDS011;61545;53.726;-0.444;2022-07-03T18:01:37;1.5;;;0.5;;
73315;SDS011;61545;53.726;-0.444;2022-07-03T18:06:36;2.1;;;0.6;;
73315;SDS011;61545;53.726;-0.444;2022-07-03T18:11:40;2.1;;;0.6;;
73315;SDS011;61545;53.726;-0.444;2022-07-03T18:16:37;1.2;;;0.5;;
73315;SDS011;61545;53.726;-0.444;2022-07-03T18:21:36;2.1;;;0.6;;
73315;SDS011;61545;53.726;-0.444;2022-07-03T18:26:39;1.9;;;0.7;;
73315;SDS011;61545;53.726;-0.444;2022-07-03T18:31:37;2.6;;;0.6;;
73315;SDS011;61545;53.726;-0.444;2022-07-03T18:36:36;1.9;;;0.6;;
73315;SDS011;61545;53.726;-0.444;2022-07-03T18:41:37;1.9;;;0.6;;
73315;SDS011;61545;53.726;-0.444;2022-07-03T18:46:37;3.7;;;0.8;;
73315;SDS011;61545;53.726;-0.444;2022-07-03T18:51:39;1.2;;;0.6;;
73315;SDS011;61545;53.726;-0.444;2022-07-03T18:56:40;1.7;;;0.7;;
73315;SDS011;61545;53.726;-0.444;2022-07-03T19:01:36;3.0;;;0.6;;
73315;SDS011;61545;53.726;-0.444;2022-07-03T19:06:38;2.3;;;0.7;;
73315;SDS011;61545;53.726;-0.444;2022-07-03T19:11:39;2.3;;;0.7;;
73315;SDS011;61545;53.726;-0.444;2022-07-03T19:16:42;3.5;;;0.7;;
73315;SDS011;61545;53.726;-0.444;2022-07-03T19:21:37;0.8;;;0.5;;
73315;SDS011;61545;53.726;-0.444;2022-07-03T19:26:37;1.3;;;0.6;;
73315;SDS011;61545;53.726;-0.444;2022-07-03T19:31:37;2.1;;;0.6;;
73315;SDS011;61545;53.726;-0.444;2022-07-03T19:36:36;0.7;;;0.4;;
73315;SDS011;61545;53.726;-0.444;2022-07-03T19:41:37;0.7;;;0.4;;
73315;SDS011;61545;53.726;-0.444;2022-07-03T19:46:36;1.9;;;0.6;;
73315;SDS011;61545;53.726;-0.444;2022-07-03T19:51:37;3.0;;;0.9;;
73315;SDS011;61545;53.726;-0.444;2022-07-03T19:56:36;1.6;;;0.6;;
73315;SDS011;61545;53.726;-0.444;2022-07-03T20:01:36;1.4;;;0.6;;
73315;SDS011;61545;53.726;-0.444;2022-07-03T20:06:36;1.4;;;0.6;;
73315;SDS011;61545;53.726;-0.444;2022-07-03T20:11:37;1.4;;;0.6;;
73315;SDS011;61545;53.726;-0.444;2022-07-03T20:16:36;1.3;;;0.6;;
73315;SDS011;61545;53.726;-0.444;2022-07-03T20:21:36;2.0;;;0.9;;
73315;SDS011;61545;53.726;-0.444;2022-07-03T20:26:36;2.7;;;0.7;;
73315;SDS011;61545;53.726;-0.444;2022-07-03T20:31:37;2.3;;;0.8;;
73315;SDS011;61545;53.726;-0.444;2022-07-03T20:36:36;3.6;;;0.7;;
73315;SDS011;61545;53.726;-0.444;2022-07-03T20:41:37;3.6;;;0.7;;
73315;SDS011;61545;53.726;-0.444;2022-07-03T20:46:37;1.9;;;0.7;;
73315;SDS011;61545;53.726;-0.444;2022-07-03T20:51:36;2.6;;;0.7;;
73315;SDS011;61545;53.726;-0.444;2022-07-03T20:56:36;3.1;;;0.9;;
73315;SDS011;61545;53.726;-0.444;2022-07-03T21:01:36;3.0;;;0.9;;
73315;SDS011;61545;53.726;-0.444;2022-07-03T21:06:37;3.2;;;0.9;;
73315;SDS011;61545;53.726;-0.444;2022-07-03T21:11:36;3.2;;;0.9;;
73315;SDS011;61545;53.726;-0.444;2022-07-03T21:16:37;4.3;;;1;;
73315;SDS011;61545;53.726;-0.444;2022-07-03T21:21:37;2.9;;;0.9;;
73315;SDS011;61545;53.726;-0.444;2022-07-03T21:26:36;4.1;;;1.1;;
73315;SDS011;61545;53.726;-0.444;2022-07-03T21:31:36;11.7;;;5;;
73315;SDS011;61545;53.726;-0.444;2022-07-03T21:36:36;10.9;;;4.7;;
73315;SDS011;61545;53.726;-0.444;2022-07-03T21:41:37;10.9;;;4.7;;
73315;SDS011;61545;53.726;-0.444;2022-07-03T21:46:37;5.8;;;2.5;;
73315;SDS011;61545;53.726;-0.444;2022-07-03T21:51:36;3.3;;;1.3;;
73315;SDS011;61545;53.726;-0.444;2022-07-03T21:56:36;2.3;;;1;;
73315;SDS011;61545;53.726;-0.444;2022-07-03T22:01:37;5.0;;;0.9;;
73315;SDS011;61545;53.726;-0.444;2022-07-03T22:06:37;9.0;;;1.2;;
73315;SDS011;61545;53.726;-0.444;2022-07-03T22:11:36;9.0;;;1.2;;
73315;SDS011;61545;53.726;-0.444;2022-07-03T22:16:36;4.4;;;1.2;;
73315;SDS011;61545;53.726;-0.444;2022-07-03T22:21:37;5.2;;;1.3;;
73315;SDS011;61545;53.726;-0.444;2022-07-03T22:26:36;4.1;;;1.2;;
73315;SDS011;61545;53.726;-0.444;2022-07-03T22:31:36;3.4;;;1.1;;
73315;SDS011;61545;53.726;-0.444;2022-07-03T22:36:37;4.6;;;1.1;;
73315;SDS011;61545;53.726;-0.444;2022-07-03T22:41:37;4.6;;;1.1;;
73315;SDS011;61545;53.726;-0.444;2022-07-03T22:46:36;3.3;;;1;;
73315;SDS011;61545;53.726;-0.444;2022-07-03T22:51:37;3.8;;;1.1;;
73315;SDS011;61545;53.726;-0.444;2022-07-03T22:56:37;4.2;;;1.4;;
73315;SDS011;61545;53.726;-0.444;2022-07-03T23:01:37;3.6;;;1.2;;
73315;SDS011;61545;53.726;-0.444;2022-07-03T23:06:37;4.1;;;1.2;;
73315;SDS011;61545;53.726;-0.444;2022-07-03T23:11:37;4.1;;;1.2;;
73315;SDS011;61545;53.726;-0.444;2022-07-03T23:16:37;4.1;;;1.3;;
73315;SDS011;61545;53.726;-0.444;2022-07-03T23:21:37;2.4;;;1.2;;
73315;SDS011;61545;53.726;-0.444;2022-07-03T23:26:37;9.7;;;1.3;;
73315;SDS011;61545;53.726;-0.444;2022-07-03T23:31:37;2.6;;;1.1;;
73315;SDS011;61545;53.726;-0.444;2022-07-03T23:36:37;2.6;;;1.1;;
73315;SDS011;61545;53.726;-0.444;2022-07-03T23:41:37;2.6;;;1.1;;
73315;SDS011;61545;53.726;-0.444;2022-07-03T23:46:36;1.8;;;0.9;;
73315;SDS011;61545;53.726;-0.444;2022-07-03T23:51:37;2.4;;;0.9;;
73315;SDS011;61545;53.726;-0.444;2022-07-03T23:56:37;3.0;;;0.9;;
